sensor_id;sensor_type;location;lat;lon;timestamp;P1;durP1;ratioP1;P2;durP2;ratioP2
77726;SDS011;68312;53.502;10.030;2023-07-24T00:00:48;4.35;;;2.42;;
77726;SDS011;68312;53.502;10.030;2023-07-24T00:03:13;3.72;;;2.10;;
77726;SDS011;68312;53.502;10.030;2023-07-24T00:05:39;4.47;;;2.20;;
77726;SDS011;68312;53.502;10.030;2023-07-24T00:08:04;5.32;;;2.40;;
77726;SDS011;68312;53.502;10.030;2023-07-24T00:10:29;4.50;;;2.50;;
77726;SDS011;68312;53.502;10.030;2023-07-24T00:12:55;4.68;;;2.00;;
77726;SDS011;68312;53.502;10.030;2023-07-24T00:15:20;3.55;;;2.17;;
77726;SDS011;68312;53.502;10.030;2023-07-24T00:17:46;3.35;;;2.00;;
77726;SDS011;68312;53.502;10.030;2023-07-24T00:20:11;4.00;;;2.20;;
77726;SDS011;68312;53.502;10.030;2023-07-24T00:22:37;4.25;;;2.28;;
77726;SDS011;68312;53.502;10.030;2023-07-24T00:25:02;5.22;;;2.40;;
77726;SDS011;68312;53.502;10.030;2023-07-24T00:27:27;4.38;;;2.35;;
77726;SDS011;68312;53.502;10.030;2023-07-24T00:29:53;4.03;;;2.30;;
77726;SDS011;68312;53.502;10.030;2023-07-24T00:32:18;6.20;;;2.97;;
77726;SDS011;68312;53.502;10.030;2023-07-24T00:34:44;4.82;;;2.30;;
77726;SDS011;68312;53.502;10.030;2023-07-24T00:37:09;4.50;;;2.50;;
77726;SDS011;68312;53.502;10.030;2023-07-24T00:39:34;4.07;;;2.38;;
77726;SDS011;68312;53.502;10.030;2023-07-24T00:42:01;6.70;;;2.30;;
77726;SDS011;68312;53.502;10.030;2023-07-24T00:44:27;4.93;;;2.20;;
77726;SDS011;68312;53.502;10.030;2023-07-24T00:46:52;4.18;;;2.28;;
77726;SDS011;68312;53.502;10.030;2023-07-24T00:49:18;4.55;;;2.70;;
77726;SDS011;68312;53.502;10.030;2023-07-24T00:51:44;6.20;;;2.88;;
77726;SDS011;68312;53.502;10.030;2023-07-24T00:54:11;4.35;;;2.50;;
77726;SDS011;68312;53.502;10.030;2023-07-24T00:56:42;6.18;;;2.42;;
77726;SDS011;68312;53.502;10.030;2023-07-24T00:59:10;6.43;;;2.60;;
77726;SDS011;68312;53.502;10.030;2023-07-24T01:01:37;5.20;;;2.35;;
77726;SDS011;68312;53.502;10.030;2023-07-24T01:04:04;3.72;;;2.35;;
77726;SDS011;68312;53.502;10.030;2023-07-24T01:06:31;5.35;;;2.88;;
77726;SDS011;68312;53.502;10.030;2023-07-24T01:08:57;6.35;;;2.88;;
77726;SDS011;68312;53.502;10.030;2023-07-24T01:11:41;5.25;;;2.45;;
77726;SDS011;68312;53.502;10.030;2023-07-24T01:14:14;5.38;;;2.40;;
77726;SDS011;68312;53.502;10.030;2023-07-24T01:16:59;3.95;;;2.70;;
77726;SDS011;68312;53.502;10.030;2023-07-24T01:25:00;5.95;;;2.75;;
77726;SDS011;68312;53.502;10.030;2023-07-24T01:27:29;4.60;;;2.53;;
77726;SDS011;68312;53.502;10.030;2023-07-24T01:29:54;6.63;;;3.00;;
77726;SDS011;68312;53.502;10.030;2023-07-24T01:32:20;5.30;;;2.80;;
77726;SDS011;68312;53.502;10.030;2023-07-24T01:34:46;4.43;;;2.85;;
77726;SDS011;68312;53.502;10.030;2023-07-24T01:37:12;5.90;;;3.08;;
77726;SDS011;68312;53.502;10.030;2023-07-24T01:39:40;3.42;;;2.42;;
77726;SDS011;68312;53.502;10.030;2023-07-24T01:42:06;5.65;;;2.80;;
77726;SDS011;68312;53.502;10.030;2023-07-24T01:44:32;5.18;;;3.08;;
77726;SDS011;68312;53.502;10.030;2023-07-24T01:46:58;4.40;;;2.70;;
77726;SDS011;68312;53.502;10.030;2023-07-24T01:49:23;3.88;;;2.20;;
77726;SDS011;68312;53.502;10.030;2023-07-24T01:51:48;4.20;;;2.83;;
77726;SDS011;68312;53.502;10.030;2023-07-24T01:54:14;5.70;;;2.80;;
77726;SDS011;68312;53.502;10.030;2023-07-24T01:56:39;5.55;;;2.80;;
77726;SDS011;68312;53.502;10.030;2023-07-24T01:59:05;4.63;;;2.65;;
77726;SDS011;68312;53.502;10.030;2023-07-24T02:01:31;5.28;;;2.90;;
77726;SDS011;68312;53.502;10.030;2023-07-24T02:03:56;4.43;;;3.10;;
77726;SDS011;68312;53.502;10.030;2023-07-24T02:06:22;5.03;;;2.90;;
77726;SDS011;68312;53.502;10.030;2023-07-24T02:08:47;5.05;;;2.92;;
77726;SDS011;68312;53.502;10.030;2023-07-24T02:11:17;4.20;;;2.80;;
77726;SDS011;68312;53.502;10.030;2023-07-24T02:13:46;4.38;;;2.83;;
77726;SDS011;68312;53.502;10.030;2023-07-24T02:16:12;6.57;;;2.85;;
77726;SDS011;68312;53.502;10.030;2023-07-24T02:18:38;4.65;;;3.10;;
77726;SDS011;68312;53.502;10.030;2023-07-24T02:21:07;5.78;;;3.38;;
77726;SDS011;68312;53.502;10.030;2023-07-24T02:23:32;6.80;;;2.80;;
77726;SDS011;68312;53.502;10.030;2023-07-24T02:25:57;5.28;;;2.88;;
77726;SDS011;68312;53.502;10.030;2023-07-24T02:28:23;4.53;;;2.60;;
77726;SDS011;68312;53.502;10.030;2023-07-24T02:30:48;6.05;;;3.13;;
77726;SDS011;68312;53.502;10.030;2023-07-24T02:33:14;5.45;;;2.90;;
77726;SDS011;68312;53.502;10.030;2023-07-24T02:35:43;6.72;;;3.20;;
77726;SDS011;68312;53.502;10.030;2023-07-24T02:38:08;5.07;;;2.95;;
77726;SDS011;68312;53.502;10.030;2023-07-24T02:40:34;6.15;;;2.85;;
77726;SDS011;68312;53.502;10.030;2023-07-24T02:43:00;5.30;;;2.55;;
77726;SDS011;68312;53.502;10.030;2023-07-24T02:45:26;5.90;;;3.45;;
77726;SDS011;68312;53.502;10.030;2023-07-24T02:47:51;5.97;;;2.92;;
77726;SDS011;68312;53.502;10.030;2023-07-24T02:50:17;4.13;;;3.13;;
77726;SDS011;68312;53.502;10.030;2023-07-24T02:52:42;6.55;;;3.30;;
77726;SDS011;68312;53.502;10.030;2023-07-24T02:55:08;6.50;;;3.25;;
77726;SDS011;68312;53.502;10.030;2023-07-24T02:57:33;6.15;;;3.13;;
77726;SDS011;68312;53.502;10.030;2023-07-24T02:59:59;5.47;;;3.25;;
77726;SDS011;68312;53.502;10.030;2023-07-24T03:02:24;5.60;;;3.50;;
77726;SDS011;68312;53.502;10.030;2023-07-24T03:04:49;5.32;;;3.05;;
77726;SDS011;68312;53.502;10.030;2023-07-24T03:07:15;5.53;;;3.00;;
77726;SDS011;68312;53.502;10.030;2023-07-24T03:09:40;5.97;;;3.13;;
77726;SDS011;68312;53.502;10.030;2023-07-24T03:12:06;5.90;;;3.13;;
77726;SDS011;68312;53.502;10.030;2023-07-24T03:14:31;6.53;;;3.38;;
77726;SDS011;68312;53.502;10.030;2023-07-24T03:16:57;4.82;;;3.03;;
77726;SDS011;68312;53.502;10.030;2023-07-24T03:19:22;5.55;;;3.40;;
77726;SDS011;68312;53.502;10.030;2023-07-24T03:21:47;5.82;;;3.10;;
77726;SDS011;68312;53.502;10.030;2023-07-24T03:24:13;5.07;;;3.38;;
77726;SDS011;68312;53.502;10.030;2023-07-24T03:26:38;5.57;;;3.38;;
77726;SDS011;68312;53.502;10.030;2023-07-24T03:29:04;4.93;;;3.38;;
77726;SDS011;68312;53.502;10.030;2023-07-24T03:31:30;6.28;;;3.70;;
77726;SDS011;68312;53.502;10.030;2023-07-24T03:33:55;5.25;;;3.20;;
77726;SDS011;68312;53.502;10.030;2023-07-24T03:36:21;6.13;;;3.42;;
77726;SDS011;68312;53.502;10.030;2023-07-24T03:38:46;5.82;;;3.42;;
77726;SDS011;68312;53.502;10.030;2023-07-24T03:41:11;5.88;;;2.35;;
77726;SDS011;68312;53.502;10.030;2023-07-24T03:43:37;5.18;;;2.97;;
77726;SDS011;68312;53.502;10.030;2023-07-24T03:46:02;5.85;;;3.67;;
77726;SDS011;68312;53.502;10.030;2023-07-24T03:48:28;6.68;;;3.33;;
77726;SDS011;68312;53.502;10.030;2023-07-24T03:50:59;5.20;;;2.97;;
77726;SDS011;68312;53.502;10.030;2023-07-24T03:53:25;8.57;;;3.50;;
77726;SDS011;68312;53.502;10.030;2023-07-24T03:55:51;5.93;;;3.13;;
77726;SDS011;68312;53.502;10.030;2023-07-24T03:58:16;4.30;;;2.90;;
77726;SDS011;68312;53.502;10.030;2023-07-24T04:00:41;5.50;;;3.15;;
77726;SDS011;68312;53.502;10.030;2023-07-24T04:03:07;5.38;;;3.30;;
77726;SDS011;68312;53.502;10.030;2023-07-24T04:05:33;8.88;;;3.45;;
77726;SDS011;68312;53.502;10.030;2023-07-24T04:08:00;5.53;;;3.17;;
77726;SDS011;68312;53.502;10.030;2023-07-24T04:10:25;5.68;;;3.45;;
77726;SDS011;68312;53.502;10.030;2023-07-24T04:12:51;6.50;;;3.55;;
77726;SDS011;68312;53.502;10.030;2023-07-24T04:15:16;7.38;;;3.40;;
77726;SDS011;68312;53.502;10.030;2023-07-24T04:17:42;5.88;;;3.42;;
77726;SDS011;68312;53.502;10.030;2023-07-24T04:20:07;7.78;;;3.85;;
77726;SDS011;68312;53.502;10.030;2023-07-24T04:22:33;5.05;;;3.10;;
77726;SDS011;68312;53.502;10.030;2023-07-24T04:24:59;6.57;;;3.17;;
77726;SDS011;68312;53.502;10.030;2023-07-24T04:27:24;5.82;;;3.47;;
77726;SDS011;68312;53.502;10.030;2023-07-24T04:29:49;6.63;;;2.95;;
77726;SDS011;68312;53.502;10.030;2023-07-24T04:32:15;6.38;;;3.30;;
77726;SDS011;68312;53.502;10.030;2023-07-24T04:34:40;7.43;;;3.53;;
77726;SDS011;68312;53.502;10.030;2023-07-24T04:37:05;6.10;;;3.42;;
77726;SDS011;68312;53.502;10.030;2023-07-24T04:39:31;5.60;;;3.05;;
77726;SDS011;68312;53.502;10.030;2023-07-24T04:41:56;6.13;;;2.88;;
77726;SDS011;68312;53.502;10.030;2023-07-24T04:44:21;5.78;;;3.30;;
77726;SDS011;68312;53.502;10.030;2023-07-24T04:46:47;5.82;;;3.30;;
77726;SDS011;68312;53.502;10.030;2023-07-24T04:49:12;6.72;;;3.40;;
77726;SDS011;68312;53.502;10.030;2023-07-24T04:51:37;6.25;;;3.20;;
77726;SDS011;68312;53.502;10.030;2023-07-24T04:54:03;5.95;;;3.20;;
77726;SDS011;68312;53.502;10.030;2023-07-24T04:56:28;5.13;;;3.33;;
77726;SDS011;68312;53.502;10.030;2023-07-24T04:58:54;5.95;;;3.35;;
77726;SDS011;68312;53.502;10.030;2023-07-24T05:01:19;5.68;;;3.20;;
77726;SDS011;68312;53.502;10.030;2023-07-24T05:03:44;7.20;;;3.35;;
77726;SDS011;68312;53.502;10.030;2023-07-24T05:06:10;6.65;;;3.50;;
77726;SDS011;68312;53.502;10.030;2023-07-24T05:08:35;6.25;;;3.13;;
77726;SDS011;68312;53.502;10.030;2023-07-24T05:11:00;6.47;;;3.72;;
77726;SDS011;68312;53.502;10.030;2023-07-24T05:13:26;4.80;;;3.03;;
77726;SDS011;68312;53.502;10.030;2023-07-24T05:15:52;5.93;;;3.25;;
77726;SDS011;68312;53.502;10.030;2023-07-24T05:18:17;5.75;;;3.17;;
77726;SDS011;68312;53.502;10.030;2023-07-24T05:20:46;7.57;;;3.00;;
77726;SDS011;68312;53.502;10.030;2023-07-24T05:23:13;5.50;;;2.85;;
77726;SDS011;68312;53.502;10.030;2023-07-24T05:25:39;8.30;;;3.42;;
77726;SDS011;68312;53.502;10.030;2023-07-24T05:28:05;5.50;;;3.00;;
77726;SDS011;68312;53.502;10.030;2023-07-24T05:30:30;6.57;;;3.22;;
77726;SDS011;68312;53.502;10.030;2023-07-24T05:32:56;5.47;;;3.15;;
77726;SDS011;68312;53.502;10.030;2023-07-24T05:35:21;7.63;;;2.85;;
77726;SDS011;68312;53.502;10.030;2023-07-24T05:37:46;4.00;;;2.28;;
77726;SDS011;68312;53.502;10.030;2023-07-24T05:40:12;4.28;;;2.33;;
77726;SDS011;68312;53.502;10.030;2023-07-24T05:42:37;5.72;;;2.63;;
77726;SDS011;68312;53.502;10.030;2023-07-24T05:45:07;5.85;;;2.65;;
77726;SDS011;68312;53.502;10.030;2023-07-24T05:47:33;6.40;;;2.97;;
77726;SDS011;68312;53.502;10.030;2023-07-24T05:49:59;5.10;;;2.47;;
77726;SDS011;68312;53.502;10.030;2023-07-24T05:52:24;5.40;;;3.03;;
77726;SDS011;68312;53.502;10.030;2023-07-24T05:54:49;7.72;;;3.20;;
77726;SDS011;68312;53.502;10.030;2023-07-24T05:57:15;4.15;;;2.50;;
77726;SDS011;68312;53.502;10.030;2023-07-24T05:59:40;4.32;;;2.50;;
77726;SDS011;68312;53.502;10.030;2023-07-24T06:02:06;4.32;;;2.78;;
77726;SDS011;68312;53.502;10.030;2023-07-24T06:04:32;5.93;;;3.38;;
77726;SDS011;68312;53.502;10.030;2023-07-24T06:06:58;6.80;;;2.97;;
77726;SDS011;68312;53.502;10.030;2023-07-24T06:09:23;4.93;;;2.58;;
77726;SDS011;68312;53.502;10.030;2023-07-24T06:11:48;6.63;;;3.15;;
77726;SDS011;68312;53.502;10.030;2023-07-24T06:14:14;4.57;;;2.80;;
77726;SDS011;68312;53.502;10.030;2023-07-24T06:16:39;7.20;;;3.08;;
77726;SDS011;68312;53.502;10.030;2023-07-24T06:19:05;5.03;;;3.33;;
77726;SDS011;68312;53.502;10.030;2023-07-24T06:21:30;5.07;;;2.80;;
77726;SDS011;68312;53.502;10.030;2023-07-24T06:23:56;5.03;;;2.58;;
77726;SDS011;68312;53.502;10.030;2023-07-24T06:26:21;5.63;;;3.10;;
77726;SDS011;68312;53.502;10.030;2023-07-24T06:28:47;6.30;;;2.80;;
77726;SDS011;68312;53.502;10.030;2023-07-24T06:31:12;4.47;;;2.65;;
77726;SDS011;68312;53.502;10.030;2023-07-24T06:33:38;4.20;;;2.53;;
77726;SDS011;68312;53.502;10.030;2023-07-24T06:36:03;5.40;;;2.90;;
77726;SDS011;68312;53.502;10.030;2023-07-24T06:38:29;6.35;;;3.10;;
77726;SDS011;68312;53.502;10.030;2023-07-24T06:40:54;4.00;;;2.60;;
77726;SDS011;68312;53.502;10.030;2023-07-24T06:43:20;5.28;;;2.55;;
77726;SDS011;68312;53.502;10.030;2023-07-24T06:45:45;4.80;;;2.33;;
77726;SDS011;68312;53.502;10.030;2023-07-24T06:48:10;5.15;;;2.72;;
77726;SDS011;68312;53.502;10.030;2023-07-24T06:50:36;4.00;;;2.50;;
77726;SDS011;68312;53.502;10.030;2023-07-24T06:53:01;3.65;;;2.33;;
77726;SDS011;68312;53.502;10.030;2023-07-24T06:55:26;3.42;;;2.30;;
77726;SDS011;68312;53.502;10.030;2023-07-24T06:57:52;4.25;;;2.15;;
77726;SDS011;68312;53.502;10.030;2023-07-24T07:00:17;5.53;;;2.38;;
77726;SDS011;68312;53.502;10.030;2023-07-24T07:02:43;4.60;;;2.47;;
77726;SDS011;68312;53.502;10.030;2023-07-24T07:05:08;4.72;;;2.50;;
77726;SDS011;68312;53.502;10.030;2023-07-24T07:07:34;3.58;;;2.38;;
77726;SDS011;68312;53.502;10.030;2023-07-24T07:09:59;3.50;;;2.15;;
77726;SDS011;68312;53.502;10.030;2023-07-24T07:12:25;4.18;;;2.47;;
77726;SDS011;68312;53.502;10.030;2023-07-24T07:14:50;3.90;;;2.28;;
77726;SDS011;68312;53.502;10.030;2023-07-24T07:17:15;3.85;;;2.20;;
77726;SDS011;68312;53.502;10.030;2023-07-24T07:19:41;3.63;;;2.20;;
77726;SDS011;68312;53.502;10.030;2023-07-24T07:22:06;3.47;;;2.38;;
77726;SDS011;68312;53.502;10.030;2023-07-24T07:24:32;3.33;;;2.22;;
77726;SDS011;68312;53.502;10.030;2023-07-24T07:26:57;3.88;;;2.55;;
77726;SDS011;68312;53.502;10.030;2023-07-24T07:29:22;5.53;;;2.78;;
77726;SDS011;68312;53.502;10.030;2023-07-24T07:31:48;5.68;;;2.60;;
77726;SDS011;68312;53.502;10.030;2023-07-24T07:34:13;3.50;;;2.15;;
77726;SDS011;68312;53.502;10.030;2023-07-24T07:36:39;4.45;;;2.25;;
77726;SDS011;68312;53.502;10.030;2023-07-24T07:39:04;5.00;;;2.65;;
77726;SDS011;68312;53.502;10.030;2023-07-24T07:41:30;4.15;;;2.50;;
77726;SDS011;68312;53.502;10.030;2023-07-24T07:43:56;3.78;;;2.17;;
77726;SDS011;68312;53.502;10.030;2023-07-24T07:46:22;5.25;;;2.40;;
77726;SDS011;68312;53.502;10.030;2023-07-24T07:48:48;4.32;;;2.92;;
77726;SDS011;68312;53.502;10.030;2023-07-24T07:51:14;4.38;;;2.88;;
77726;SDS011;68312;53.502;10.030;2023-07-24T07:53:40;4.47;;;2.90;;
77726;SDS011;68312;53.502;10.030;2023-07-24T07:56:06;5.25;;;2.85;;
77726;SDS011;68312;53.502;10.030;2023-07-24T07:58:32;5.20;;;3.03;;
77726;SDS011;68312;53.502;10.030;2023-07-24T08:00:58;5.10;;;3.03;;
77726;SDS011;68312;53.502;10.030;2023-07-24T08:03:23;7.28;;;3.47;;
77726;SDS011;68312;53.502;10.030;2023-07-24T08:05:48;5.75;;;3.35;;
77726;SDS011;68312;53.502;10.030;2023-07-24T08:08:14;6.75;;;4.07;;
77726;SDS011;68312;53.502;10.030;2023-07-24T08:10:39;6.90;;;4.07;;
77726;SDS011;68312;53.502;10.030;2023-07-24T08:13:05;5.80;;;3.67;;
77726;SDS011;68312;53.502;10.030;2023-07-24T08:15:35;6.15;;;4.22;;
77726;SDS011;68312;53.502;10.030;2023-07-24T08:18:02;5.88;;;3.97;;
77726;SDS011;68312;53.502;10.030;2023-07-24T08:20:29;5.88;;;3.55;;
77726;SDS011;68312;53.502;10.030;2023-07-24T08:22:55;6.50;;;3.92;;
77726;SDS011;68312;53.502;10.030;2023-07-24T08:25:21;6.22;;;3.53;;
77726;SDS011;68312;53.502;10.030;2023-07-24T08:27:46;4.97;;;3.58;;
77726;SDS011;68312;53.502;10.030;2023-07-24T08:30:11;6.18;;;4.00;;
77726;SDS011;68312;53.502;10.030;2023-07-24T08:32:37;6.75;;;3.08;;
77726;SDS011;68312;53.502;10.030;2023-07-24T08:35:04;6.57;;;3.40;;
77726;SDS011;68312;53.502;10.030;2023-07-24T08:37:31;5.70;;;3.70;;
77726;SDS011;68312;53.502;10.030;2023-07-24T08:39:56;6.63;;;3.72;;
77726;SDS011;68312;53.502;10.030;2023-07-24T08:42:21;5.45;;;3.70;;
77726;SDS011;68312;53.502;10.030;2023-07-24T08:44:48;6.55;;;3.65;;
77726;SDS011;68312;53.502;10.030;2023-07-24T08:47:14;5.05;;;3.42;;
77726;SDS011;68312;53.502;10.030;2023-07-24T08:49:40;5.45;;;3.60;;
77726;SDS011;68312;53.502;10.030;2023-07-24T08:52:08;4.80;;;3.17;;
77726;SDS011;68312;53.502;10.030;2023-07-24T08:54:37;6.88;;;3.42;;
77726;SDS011;68312;53.502;10.030;2023-07-24T08:57:06;5.53;;;3.63;;
77726;SDS011;68312;53.502;10.030;2023-07-24T08:59:32;8.80;;;3.70;;
77726;SDS011;68312;53.502;10.030;2023-07-24T09:01:59;4.53;;;3.17;;
77726;SDS011;68312;53.502;10.030;2023-07-24T09:04:25;4.45;;;2.83;;
77726;SDS011;68312;53.502;10.030;2023-07-24T09:06:51;5.60;;;3.15;;
77726;SDS011;68312;53.502;10.030;2023-07-24T09:09:17;5.63;;;3.05;;
77726;SDS011;68312;53.502;10.030;2023-07-24T09:11:50;7.15;;;3.75;;
77726;SDS011;68312;53.502;10.030;2023-07-24T09:14:21;4.93;;;3.00;;
77726;SDS011;68312;53.502;10.030;2023-07-24T09:16:48;5.32;;;3.17;;
77726;SDS011;68312;53.502;10.030;2023-07-24T09:19:17;4.88;;;3.40;;
77726;SDS011;68312;53.502;10.030;2023-07-24T09:21:43;5.80;;;3.70;;
77726;SDS011;68312;53.502;10.030;2023-07-24T09:24:13;7.13;;;4.50;;
77726;SDS011;68312;53.502;10.030;2023-07-24T09:26:46;6.35;;;4.05;;
77726;SDS011;68312;53.502;10.030;2023-07-24T09:29:18;7.25;;;4.35;;
77726;SDS011;68312;53.502;10.030;2023-07-24T09:31:44;7.65;;;4.68;;
77726;SDS011;68312;53.502;10.030;2023-07-24T09:34:17;12.18;;;5.00;;
77726;SDS011;68312;53.502;10.030;2023-07-24T09:36:43;8.10;;;5.43;;
77726;SDS011;68312;53.502;10.030;2023-07-24T09:39:10;10.13;;;4.45;;
77726;SDS011;68312;53.502;10.030;2023-07-24T09:41:37;6.47;;;4.55;;
77726;SDS011;68312;53.502;10.030;2023-07-24T09:44:04;6.15;;;4.55;;
77726;SDS011;68312;53.502;10.030;2023-07-24T09:46:30;8.70;;;4.85;;
77726;SDS011;68312;53.502;10.030;2023-07-24T09:48:57;7.35;;;4.95;;
77726;SDS011;68312;53.502;10.030;2023-07-24T09:51:23;7.93;;;5.03;;
77726;SDS011;68312;53.502;10.030;2023-07-24T09:53:54;6.75;;;4.82;;
77726;SDS011;68312;53.502;10.030;2023-07-24T09:56:26;6.57;;;5.13;;
77726;SDS011;68312;53.502;10.030;2023-07-24T09:58:53;10.48;;;5.68;;
77726;SDS011;68312;53.502;10.030;2023-07-24T10:01:20;7.20;;;5.00;;
77726;SDS011;68312;53.502;10.030;2023-07-24T10:03:47;6.95;;;5.35;;
77726;SDS011;68312;53.502;10.030;2023-07-24T10:06:14;8.45;;;5.55;;
77726;SDS011;68312;53.502;10.030;2023-07-24T10:08:41;7.10;;;5.25;;
77726;SDS011;68312;53.502;10.030;2023-07-24T10:11:08;7.07;;;5.30;;
77726;SDS011;68312;53.502;10.030;2023-07-24T10:13:36;7.10;;;5.15;;
77726;SDS011;68312;53.502;10.030;2023-07-24T10:16:03;8.00;;;5.03;;
77726;SDS011;68312;53.502;10.030;2023-07-24T10:18:31;7.10;;;5.18;;
77726;SDS011;68312;53.502;10.030;2023-07-24T10:21:03;7.30;;;5.28;;
77726;SDS011;68312;53.502;10.030;2023-07-24T10:23:33;8.10;;;5.63;;
77726;SDS011;68312;53.502;10.030;2023-07-24T10:26:04;7.88;;;5.43;;
77726;SDS011;68312;53.502;10.030;2023-07-24T10:28:34;8.32;;;5.63;;
77726;SDS011;68312;53.502;10.030;2023-07-24T10:31:21;7.60;;;5.20;;
77726;SDS011;68312;53.502;10.030;2023-07-24T10:33:49;9.02;;;5.95;;
77726;SDS011;68312;53.502;10.030;2023-07-24T10:36:21;8.35;;;6.05;;
77726;SDS011;68312;53.502;10.030;2023-07-24T10:38:52;10.52;;;5.63;;
77726;SDS011;68312;53.502;10.030;2023-07-24T10:41:20;7.82;;;5.85;;
77726;SDS011;68312;53.502;10.030;2023-07-24T10:43:47;7.25;;;5.65;;
77726;SDS011;68312;53.502;10.030;2023-07-24T10:46:16;8.43;;;5.35;;
77726;SDS011;68312;53.502;10.030;2023-07-24T10:48:44;7.70;;;5.45;;
77726;SDS011;68312;53.502;10.030;2023-07-24T10:51:13;6.70;;;4.85;;
77726;SDS011;68312;53.502;10.030;2023-07-24T10:53:43;8.02;;;4.72;;
77726;SDS011;68312;53.502;10.030;2023-07-24T10:56:12;5.63;;;4.82;;
77726;SDS011;68312;53.502;10.030;2023-07-24T10:58:37;6.65;;;4.85;;
77726;SDS011;68312;53.502;10.030;2023-07-24T11:01:03;6.78;;;4.53;;
77726;SDS011;68312;53.502;10.030;2023-07-24T11:03:30;5.78;;;4.30;;
77726;SDS011;68312;53.502;10.030;2023-07-24T11:05:57;6.03;;;4.15;;
77726;SDS011;68312;53.502;10.030;2023-07-24T11:08:23;6.35;;;5.03;;
77726;SDS011;68312;53.502;10.030;2023-07-24T11:10:53;5.82;;;3.95;;
77726;SDS011;68312;53.502;10.030;2023-07-24T11:13:22;7.17;;;4.57;;
77726;SDS011;68312;53.502;10.030;2023-07-24T11:15:50;7.68;;;4.57;;
77726;SDS011;68312;53.502;10.030;2023-07-24T11:18:17;6.20;;;4.22;;
77726;SDS011;68312;53.502;10.030;2023-07-24T11:20:48;4.72;;;3.72;;
77726;SDS011;68312;53.502;10.030;2023-07-24T11:23:16;4.90;;;3.50;;
77726;SDS011;68312;53.502;10.030;2023-07-24T11:25:42;4.85;;;3.70;;
77726;SDS011;68312;53.502;10.030;2023-07-24T11:28:10;6.63;;;4.22;;
77726;SDS011;68312;53.502;10.030;2023-07-24T11:30:37;6.45;;;5.00;;
77726;SDS011;68312;53.502;10.030;2023-07-24T11:33:03;5.40;;;4.75;;
77726;SDS011;68312;53.502;10.030;2023-07-24T11:35:31;6.50;;;5.05;;
77726;SDS011;68312;53.502;10.030;2023-07-24T11:37:57;8.18;;;5.32;;
77726;SDS011;68312;53.502;10.030;2023-07-24T11:40:30;6.70;;;5.32;;
77726;SDS011;68312;53.502;10.030;2023-07-24T11:42:59;7.30;;;5.70;;
77726;SDS011;68312;53.502;10.030;2023-07-24T11:45:24;6.07;;;5.32;;
77726;SDS011;68312;53.502;10.030;2023-07-24T11:47:50;6.95;;;5.00;;
77726;SDS011;68312;53.502;10.030;2023-07-24T11:50:18;7.22;;;5.10;;
77726;SDS011;68312;53.502;10.030;2023-07-24T11:52:45;7.10;;;5.22;;
77726;SDS011;68312;53.502;10.030;2023-07-24T11:55:13;6.60;;;5.00;;
77726;SDS011;68312;53.502;10.030;2023-07-24T11:57:41;5.13;;;4.13;;
77726;SDS011;68312;53.502;10.030;2023-07-24T12:00:17;6.18;;;4.55;;
77726;SDS011;68312;53.502;10.030;2023-07-24T12:02:46;5.25;;;4.00;;
77726;SDS011;68312;53.502;10.030;2023-07-24T12:05:12;3.97;;;3.38;;
77726;SDS011;68312;53.502;10.030;2023-07-24T12:07:37;5.00;;;3.65;;
77726;SDS011;68312;53.502;10.030;2023-07-24T12:10:03;4.75;;;3.63;;
77726;SDS011;68312;53.502;10.030;2023-07-24T12:15:12;3.58;;;2.80;;
77726;SDS011;68312;53.502;10.030;2023-07-24T12:17:39;4.78;;;2.80;;
77726;SDS011;68312;53.502;10.030;2023-07-24T12:20:07;4.18;;;2.88;;
77726;SDS011;68312;53.502;10.030;2023-07-24T12:22:34;3.47;;;2.30;;
77726;SDS011;68312;53.502;10.030;2023-07-24T12:25:05;4.03;;;2.50;;
77726;SDS011;68312;53.502;10.030;2023-07-24T12:27:31;3.85;;;2.55;;
77726;SDS011;68312;53.502;10.030;2023-07-24T12:29:57;5.90;;;3.38;;
77726;SDS011;68312;53.502;10.030;2023-07-24T12:32:24;4.32;;;2.90;;
77726;SDS011;68312;53.502;10.030;2023-07-24T12:34:52;4.15;;;3.00;;
77726;SDS011;68312;53.502;10.030;2023-07-24T12:37:19;4.40;;;2.70;;
77726;SDS011;68312;53.502;10.030;2023-07-24T12:39:45;4.65;;;2.92;;
77726;SDS011;68312;53.502;10.030;2023-07-24T12:42:12;3.80;;;3.20;;
77726;SDS011;68312;53.502;10.030;2023-07-24T12:44:38;4.00;;;3.10;;
77726;SDS011;68312;53.502;10.030;2023-07-24T12:47:04;3.88;;;2.88;;
77726;SDS011;68312;53.502;10.030;2023-07-24T12:49:30;3.78;;;2.80;;
77726;SDS011;68312;53.502;10.030;2023-07-24T12:51:56;5.22;;;3.20;;
77726;SDS011;68312;53.502;10.030;2023-07-24T12:54:21;4.55;;;3.55;;
77726;SDS011;68312;53.502;10.030;2023-07-24T12:56:48;4.35;;;3.20;;
77726;SDS011;68312;53.502;10.030;2023-07-24T12:59:14;5.38;;;3.20;;
77726;SDS011;68312;53.502;10.030;2023-07-24T13:01:40;7.20;;;3.20;;
77726;SDS011;68312;53.502;10.030;2023-07-24T13:04:06;3.97;;;3.08;;
77726;SDS011;68312;53.502;10.030;2023-07-24T13:06:32;5.45;;;2.78;;
77726;SDS011;68312;53.502;10.030;2023-07-24T13:08:58;4.03;;;2.88;;
77726;SDS011;68312;53.502;10.030;2023-07-24T13:11:23;6.93;;;2.95;;
77726;SDS011;68312;53.502;10.030;2023-07-24T13:13:49;4.50;;;2.70;;
77726;SDS011;68312;53.502;10.030;2023-07-24T13:16:15;3.25;;;2.67;;
77726;SDS011;68312;53.502;10.030;2023-07-24T13:18:41;3.00;;;2.50;;
77726;SDS011;68312;53.502;10.030;2023-07-24T13:21:07;4.30;;;2.53;;
77726;SDS011;68312;53.502;10.030;2023-07-24T13:23:33;5.45;;;2.50;;
77726;SDS011;68312;53.502;10.030;2023-07-24T13:25:58;4.47;;;2.72;;
77726;SDS011;68312;53.502;10.030;2023-07-24T13:28:24;5.80;;;3.30;;
77726;SDS011;68312;53.502;10.030;2023-07-24T13:30:49;3.83;;;3.17;;
77726;SDS011;68312;53.502;10.030;2023-07-24T13:33:15;4.07;;;3.08;;
77726;SDS011;68312;53.502;10.030;2023-07-24T13:35:40;3.53;;;2.78;;
77726;SDS011;68312;53.502;10.030;2023-07-24T13:38:06;4.25;;;2.80;;
77726;SDS011;68312;53.502;10.030;2023-07-24T13:40:33;5.72;;;2.72;;
77726;SDS011;68312;53.502;10.030;2023-07-24T13:42:59;3.97;;;3.10;;
77726;SDS011;68312;53.502;10.030;2023-07-24T13:45:25;4.32;;;3.00;;
77726;SDS011;68312;53.502;10.030;2023-07-24T13:47:50;5.47;;;3.28;;
77726;SDS011;68312;53.502;10.030;2023-07-24T13:50:15;4.40;;;2.97;;
77726;SDS011;68312;53.502;10.030;2023-07-24T13:52:41;4.45;;;3.45;;
77726;SDS011;68312;53.502;10.030;2023-07-24T13:55:06;4.30;;;3.00;;
77726;SDS011;68312;53.502;10.030;2023-07-24T13:57:32;5.43;;;2.95;;
77726;SDS011;68312;53.502;10.030;2023-07-24T13:59:57;3.72;;;2.83;;
77726;SDS011;68312;53.502;10.030;2023-07-24T14:02:23;4.90;;;2.92;;
77726;SDS011;68312;53.502;10.030;2023-07-24T14:04:48;6.47;;;3.58;;
77726;SDS011;68312;53.502;10.030;2023-07-24T14:07:14;3.70;;;2.95;;
77726;SDS011;68312;53.502;10.030;2023-07-24T14:09:39;4.30;;;3.40;;
77726;SDS011;68312;53.502;10.030;2023-07-24T14:12:04;5.68;;;2.72;;
77726;SDS011;68312;53.502;10.030;2023-07-24T14:14:31;3.90;;;3.00;;
77726;SDS011;68312;53.502;10.030;2023-07-24T14:16:56;5.25;;;2.53;;
77726;SDS011;68312;53.502;10.030;2023-07-24T14:19:22;3.42;;;2.20;;
77726;SDS011;68312;53.502;10.030;2023-07-24T14:21:51;4.65;;;2.72;;
77726;SDS011;68312;53.502;10.030;2023-07-24T14:24:17;5.47;;;3.28;;
77726;SDS011;68312;53.502;10.030;2023-07-24T14:26:42;4.63;;;2.75;;
77726;SDS011;68312;53.502;10.030;2023-07-24T14:29:09;4.47;;;2.85;;
77726;SDS011;68312;53.502;10.030;2023-07-24T14:31:36;3.58;;;2.50;;
77726;SDS011;68312;53.502;10.030;2023-07-24T14:34:02;3.83;;;2.65;;
77726;SDS011;68312;53.502;10.030;2023-07-24T14:36:28;5.38;;;2.80;;